Flight Track Log - Related Links

Times and Time Zones

All times are in EDT time to prevent confusion due to time zone crossing. See the DAL268 flight status page for this flight to view local times or setup timezone preferences in your user account.


Time Position Orientation Groundspeed Altitude Reporting Facility
EDT Latitude Longitude Course Direction KTS MPH feet Rate Location/Type
Thu 11:26:43 PM 40.6370 -73.7800 264° West  Level FlightAware ADS-B
Thu 11:30:41 PM 40.6370 -73.7790 90° East 11 13 36 Level FlightAware ADS-B
Thu 11:30:53 PM 40.6380 -73.7790 360° North 11 13 44 Level FlightAware ADS-B
Thu 11:33:00 PM 40.5243 -73.4397 114° Southeast  Level FlightAware Approximate
Thu 11:34:00 PM 40.4730 -73.2794 123° Southeast  Level FlightAware Approximate
Thu 11:35:00 PM 40.4216 -73.1170 119° Southeast  Level FlightAware Approximate
Thu 11:36:00 PM 40.3869 -72.9525 72° East  Level FlightAware Approximate
Thu 11:37:00 PM 40.4252 -72.7825 72° East  Level FlightAware Approximate
Thu 11:37:39 PM 40.6360 -73.7790 180° South 21 24  Level FlightAware ADS-B
Thu 11:38:19 PM 40.6350 -73.7770 123° Southeast 18 21 73 Level FlightAware ADS-B
Thu 11:38:59 PM 40.6340 -73.7780 217° Southwest 27 31 77 Level FlightAware ADS-B
Thu 11:39:43 PM 40.6340 -73.7810 270° West 32 37 83 Level FlightAware ADS-B
Thu 11:40:28 PM 40.6350 -73.7840 294° West 16 18 89 Level FlightAware ADS-B
Thu 11:41:09 PM 40.6370 -73.7890 298° West 18 21 98 Level FlightAware ADS-B
Thu 11:41:49 PM 40.6390 -73.7920 311° West 15 17 106 Level FlightAware ADS-B
Thu 11:42:30 PM 40.6400 -73.7960 288° West 16 18 117 Level FlightAware ADS-B
Thu 11:43:12 PM 40.6420 -73.7990 311° West 17 20 130 Level FlightAware ADS-B
Thu 11:43:32 PM 40.6430 -73.8010 303° West 18 21 146 Level FlightAware ADS-B
Thu 11:44:12 PM 40.6450 -73.8050 303° West 34 39 156 Level FlightAware ADS-B
Thu 11:44:57 PM 40.6480 -73.8060 346° North 32 37 179 Level FlightAware ADS-B
Thu 11:45:25 PM 40.6500 -73.8070 339° North 34 39 215 Level FlightAware ADS-B
Thu 11:46:20 PM 40.6490 -73.8150 261° West 31 36 246 Level FlightAware ADS-B
Thu 11:46:46 PM 40.6520 -73.8140 14° North 31 36 343 Level FlightAware ADS-B
Thu 11:48:10 PM 40.6350 -73.7890 132° Southeast 421 Level FlightAware ADS-B
Thu 11:48:40 PM 40.6220 -73.7620 122° Southeast 177 204 800 1,552 Climbing FlightAware ADS-B
Thu 11:49:08 PM 40.6030 -73.7420 141° Southeast 187 215 1,500 1,179 Climbing FlightAware ADS-B
Thu 11:49:36 PM 40.5830 -73.7200 140° Southeast 217 250 1,900 818 Climbing FlightAware ADS-B
Thu 11:49:52 PM 40.5780 -73.7010 109° East 234 269 2,100 955 Climbing FlightAware ADS-B
Thu 11:50:20 PM 40.5790 -73.6580 88° East 259 298 2,600 1,500 Climbing FlightAware ADS-B
Thu 11:50:44 PM 40.5820 -73.6190 84° East 271 312 3,400 2,100 Climbing FlightAware ADS-B
Thu 11:51:00 PM 40.5818 -73.5914 91° East 273 314 4,000 2,182 Climbing FlightAware ADS-B
Thu 11:51:06 PM 40.5802 -73.5817 102° East 272 313 4,200 2,057 Climbing FlightAware ADS-B
Thu 11:51:35 PM 40.5667 -73.5382 112° Southeast 272 313 5,200 2,045 Climbing FlightAware ADS-B
Thu 11:51:50 PM 40.5590 -73.5129 112° Southeast 283 326 5,700 1,935 Climbing FlightAware ADS-B
Thu 11:52:06 PM 40.5507 -73.4872 113° Southeast 288 331 6,200 2,000 Climbing FlightAware ADS-B
Thu 11:52:23 PM 40.5415 -73.4595 114° Southeast 294 338 6,800 2,000 Climbing FlightAware ADS-B
Thu 11:52:39 PM 40.5329 -73.4329 113° Southeast 298 343 7,300 1,935 Climbing FlightAware ADS-B
Thu 11:52:54 PM 40.5247 -73.4073 113° Southeast 305 351 7,800 1,742 Climbing FlightAware ADS-B
Thu 11:53:10 PM 40.5161 -73.3816 114° Southeast 311 358 8,200 1,500 Climbing FlightAware ADS-B
Thu 11:53:26 PM 40.5067 -73.3514 112° Southeast 320 368 8,600 1,125 Climbing FlightAware ADS-B
Thu 11:53:42 PM 40.4973 -73.3220 113° Southeast 336 387 8,800 1,125 Climbing FlightAware ADS-B
Thu 11:53:58 PM 40.4875 -73.2914 113° Southeast 344 396 9,200 1,636 Climbing FlightAware ADS-B
Thu 11:54:15 PM 40.4766 -73.2583 113° Southeast 350 403 9,700 1,500 Climbing FlightAware ADS-B
Thu 11:54:46 PM 40.4566 -73.1964 113° Southeast 367 422 10,400 1,200 Climbing FlightAware ADS-B
Thu 11:55:20 PM 40.4328 -73.1237 113° Southeast 396 456 11,000 1,164 Climbing FlightAware ADS-B
Thu 11:55:53 PM 40.4079 -73.0485 113° Southeast 418 481 11,700 1,429 Climbing FlightAware ADS-B
Thu 11:56:02 PM 40.4014 -73.0273 112° Southeast 423 487 12,000 1,875 Climbing FlightAware ADS-B
Thu 11:56:09 PM 40.3979 -73.0123 107° East 426 490 12,200 1,875 Climbing FlightAware ADS-B
Thu 11:56:18 PM 40.3952 -72.9867 98° East 432 497 12,500 2,143 Climbing FlightAware ADS-B
Thu 11:56:23 PM 40.3947 -72.9736 93° East 434 499 12,700 2,000 Climbing FlightAware ADS-B
Thu 11:56:36 PM 40.3967 -72.9417 85° East 440 506 13,100 2,000 Climbing FlightAware ADS-B
Thu 11:56:41 PM 40.3991 -72.9262 79° East 441 507 13,300 2,368 Climbing FlightAware ADS-B
Thu 11:57:14 PM 40.4212 -72.8419 71° East 448 516 14,600 2,276 Climbing FlightAware ADS-B
Thu 11:57:39 PM 40.4449 -72.7810 63° Northeast 453 521 15,500 2,032 Climbing FlightAware ADS-B
Thu 11:58:16 PM 40.4810 -72.6990 60° Northeast 459 528 16,700 1,870 Climbing FlightAware ADS-B
Thu 11:58:56 PM 40.5260 -72.5960 60° Northeast 471 542 17,900 1,875 Climbing FlightAware ADS-B
Thu 11:59:04 PM 40.5348 -72.5761 60° Northeast 463 533 18,200 1,895 Climbing FlightAware ADS-B
Thu 11:59:34 PM 40.5677 -72.4980 61° Northeast 480 552 19,100 1,700 Climbing FlightAware ADS-B
Fri 12:00:04 AM 40.6011 -72.4211 60° Northeast 485 558 19,900 1,600 Climbing FlightAware ADS-B
Fri 12:01:04 AM 40.6670 -72.2670 61° Northeast 497 572 21,500 1,584 Climbing FlightAware ADS-B
Fri 12:01:39 AM 40.7077 -72.1714 61° Northeast 22,400 1,569 Climbing FlightAware ADS-B
Fri 12:02:09 AM 40.7422 -72.0904 61° Northeast 509 586 23,200 1,326 Climbing FlightAware ADS-B
Fri 12:03:05 AM 40.8068 -71.9395 60° Northeast 522 601 24,300 1,187 Climbing FlightAware ADS-B
Fri 12:03:40 AM 40.8483 -71.8414 61° Northeast 528 608 25,000 1,200 Climbing FlightAware ADS-B
Fri 12:04:10 AM 40.8845 -71.7535 61° Northeast 535 616 25,600 1,161 Climbing FlightAware ADS-B
Fri 12:04:42 AM 40.9231 -71.6614 61° Northeast 539 620 26,200 706 Climbing FlightAware ADS-B
Fri 12:05:18 AM 40.9600 -71.5750 60° Northeast 540 621 26,400 1,040 Climbing FlightAware ADS-B
Fri 12:05:57 AM 41.0140 -71.4430 62° Northeast 550 633 27,500 1,239 Climbing FlightAware ADS-B
Fri 12:06:50 AM 41.0800 -71.2850 61° Northeast 553 636 28,300 857 Climbing FlightAware ADS-B
Fri 12:07:35 AM 41.1330 -71.1560 61° Northeast 558 642 28,900 988 Climbing FlightAware ADS-B
Fri 12:08:15 AM 41.1840 -71.0340 61° Northeast 558 642 29,700 1,050 Climbing FlightAware ADS-B
Fri 12:08:55 AM 41.2310 -70.9190 61° Northeast 559 643 30,300 1,043 Climbing FlightAware ADS-B
Fri 12:10:10 AM 41.3260 -70.6850 62° Northeast 557 641 31,700 991 Climbing FlightAware ADS-B
Fri 12:10:50 AM 41.3720 -70.5730 61° Northeast 556 640 32,200 886 Climbing FlightAware ADS-B
Fri 12:11:38 AM 41.4320 -70.4210 62° Northeast 555 639 33,000 505 Climbing FlightAware ADS-B
Fri 12:12:25 AM 41.4850 -70.2900 62° Northeast 555 639 33,000  Level FlightAware ADS-B
Fri 12:13:01 AM 41.5220 -70.1980 62° Northeast 555 639 33,000  Level FlightAware ADS-B
Fri 12:14:01 AM 41.5980 -70.0060 62° Northeast 33,000  Level FlightAware ADS-B
Fri 12:14:41 AM 41.6520 -69.8730 61° Northeast 557 641 33,000  Level FlightAware ADS-B
Fri 12:15:29 AM 41.7070 -69.7330 62° Northeast 557 641 33,000  Level FlightAware ADS-B
Fri 12:16:07 AM 41.7560 -69.6080 62° Northeast 556 640 33,000  Level FlightAware ADS-B
Fri 12:17:01 AM 41.8200 -69.4450 62° Northeast 556 640 33,000  Level FlightAware ADS-B
Fri 12:17:41 AM 41.8670 -69.3250 62° Northeast 554 638 33,000  Level FlightAware ADS-B
Fri 12:18:43 AM 41.9440 -69.1260 62° Northeast 555 639 33,000  Level FlightAware ADS-B
Fri 12:19:22 AM 41.9890 -69.0060 63° Northeast 552 635 33,000  Level FlightAware ADS-B
Fri 12:20:02 AM 42.0360 -68.8840 63° Northeast 552 635 33,000  Level FlightAware ADS-B
Fri 12:20:48 AM 42.0910 -68.7420 62° Northeast 551 634 33,000  Level FlightAware ADS-B
Fri 12:21:31 AM 42.1420 -68.6060 63° Northeast 551 634 33,000  Level FlightAware ADS-B
Fri 12:22:11 AM 42.1870 -68.4870 63° Northeast 551 634 33,000  Level FlightAware ADS-B
Fri 12:22:56 AM 42.2400 -68.3450 63° Northeast 551 634 33,000  Level FlightAware ADS-B
Fri 12:23:37 AM 42.2840 -68.2310 62° Northeast 550 633 33,000  Level FlightAware ADS-B
Fri 12:24:36 AM 42.3460 -68.0610 64° Northeast 551 634 33,000  Level FlightAware ADS-B
Fri 12:25:12 AM 42.3800 -67.9660 64° Northeast 551 634 33,000  Level FlightAware ADS-B
Fri 12:25:50 AM 42.4160 -67.8660 64° Northeast 551 634 33,000  Level FlightAware ADS-B
Fri 12:26:38 AM 42.4620 -67.7390 64° Northeast 551 634 33,000  Level FlightAware ADS-B
Fri 12:27:17 AM 42.5350 -67.5490 62° Northeast 555 639 33,000  Level FlightAware ADS-B
Fri 12:28:19 AM 42.6020 -67.3640 64° Northeast 555 639 33,000  Level FlightAware ADS-B
Fri 12:28:55 AM 42.6360 -67.2680 64° Northeast 555 639 33,000  Level FlightAware ADS-B
Fri 12:29:43 AM 42.6820 -67.1400 64° Northeast 555 639 33,000  Level FlightAware ADS-B
Fri 12:30:20 AM 42.7170 -67.0410 64° Northeast 555 639 33,000  Level FlightAware ADS-B
Fri 12:31:08 AM 42.7630 -66.9130 64° Northeast 555 639 33,000  Level FlightAware ADS-B
Fri 12:31:44 AM 42.7980 -66.8170 64° Northeast 555 639 33,000  Level FlightAware ADS-B
Fri 12:32:28 AM 42.8940 -66.5480 64° Northeast 564 649 33,000  Level FlightAware ADS-B
Fri 12:33:12 AM 42.9450 -66.4000 65° Northeast 564 649 33,000  Level FlightAware ADS-B
Fri 12:33:53 AM 42.9900 -66.2750 64° Northeast 564 649 33,000  Level FlightAware ADS-B
Fri 12:34:33 AM 43.0340 -66.1460 65° Northeast 565 650 33,000  Level FlightAware ADS-B
Fri 12:35:17 AM 43.0840 -66.0010 65° Northeast 564 649 33,000  Level FlightAware ADS-B
Fri 12:35:58 AM 43.1290 -65.8720 64° Northeast 564 649 33,000  Level FlightAware ADS-B
Fri 12:36:37 AM 43.1730 -65.7430 65° Northeast 564 649 33,000  Level FlightAware ADS-B
Fri 12:37:23 AM 43.2230 -65.5970 65° Northeast 560 644 33,000  Level FlightAware ADS-B
Fri 12:38:02 AM 43.2660 -65.4670 66° East 560 644 33,000  Level FlightAware ADS-B
Fri 12:38:48 AM 43.3170 -65.3180 65° Northeast 561 646 33,000  Level FlightAware ADS-B
Fri 12:39:28 AM 43.3600 -65.1910 65° Northeast 561 646 33,000  Level FlightAware ADS-B
Fri 12:40:12 AM 43.4080 -65.0450 66° East 561 646 33,000  Level FlightAware ADS-B
Fri 12:40:53 AM 43.4520 -64.9140 65° Northeast 561 646 33,000  Level FlightAware ADS-B
Fri 12:41:32 AM 43.4960 -64.7800 66° East 562 647 33,000  Level FlightAware ADS-B
Fri 12:42:18 AM 43.5440 -64.6320 66° East 562 647 33,000  Level FlightAware ADS-B
Fri 12:43:07 AM 43.5940 -64.4810 65° Northeast 562 647 33,000  Level FlightAware ADS-B
Fri 12:43:55 AM 43.6370 -64.3470 66° East 562 647 33,000  Level FlightAware ADS-B
Fri 12:44:58 AM 43.7110 -64.1180 66° East 567 652 33,000  Level FlightAware ADS-B
Fri 12:45:41 AM 43.7570 -63.9760 66° East 568 654 33,000  Level FlightAware ADS-B
Fri 12:46:22 AM 43.8060 -63.8230 66° East 568 654 33,000  Level FlightAware ADS-B
Fri 12:47:06 AM 43.8510 -63.6830 66° East 569 655 33,000  Level FlightAware ADS-B
Fri 12:47:55 AM 43.9000 -63.5270 66° East 569 655 33,000  Level FlightAware ADS-B
Fri 12:48:35 AM 43.9400 -63.4000 66° East 569 655 33,000  Level FlightAware ADS-B
Fri 12:49:13 AM 43.9810 -63.2660 67° East 568 654 33,000  Level FlightAware ADS-B
Fri 12:50:00 AM 44.0320 -63.1020 67° East 568 654 33,000  Level FlightAware ADS-B
Fri 12:50:35 AM 44.0660 -62.9950 66° East 568 654 33,000  Level FlightAware ADS-B
Fri 12:51:18 AM 44.1120 -62.8440 67° East 566 651 33,000  Level FlightAware ADS-B
Fri 12:52:02 AM 44.1590 -62.6910 67° East 565 650 33,000  Level FlightAware ADS-B
Fri 12:53:02 AM 44.2120 -62.5130 67° East 565 650 33,000  Level FlightAware ADS-B
Fri 12:53:45 AM 44.2630 -62.3450 67° East 566 651 33,000  Level FlightAware ADS-B
Fri 12:54:40 AM 44.3140 -62.1760 67° East 566 651 33,000  Level FlightAware ADS-B
Fri 12:55:18 AM 44.3470 -62.0670 67° East 566 651 33,000  Level FlightAware ADS-B
Fri 12:56:06 AM 44.3890 -61.9300 67° East 566 651 33,000  Level FlightAware ADS-B
Fri 12:56:40 AM 44.4190 -61.8320 67° East 566 651 33,000  Level FlightAware ADS-B
Fri 12:57:11 AM 44.4500 -61.6333 72° East 570 656 33,000  Level Gander Center
Fri 12:57:28 AM 44.4600 -61.6940 67° East 566 651 33,000  Level FlightAware ADS-B
Fri 12:58:03 AM 44.4910 -61.5940 66° East 566 651 33,000  Level FlightAware ADS-B
Fri 12:58:13 AM 44.5167 -61.4167 67° East 570 656 33,000  Level Gander Center
Fri 12:58:51 AM 44.5320 -61.4560 67° East 566 651 33,000  Level FlightAware ADS-B
Fri 12:59:00 AM 44.5667 -61.2833 62° Northeast 570 656 33,000  Level Moncton Center
Fri 12:59:27 AM 44.5640 -61.3520 67° East 566 651 33,000  Level FlightAware ADS-B
Fri 01:00:00 AM 44.6167 -61.0667 72° East 570 656 33,000  Level Moncton Center
Fri 01:01:00 AM 44.6833 -60.8500 67° East 570 656 33,000  Level Moncton Center
Fri 01:02:00 AM 44.6721 -60.8693 72° East  Level FlightAware Approximate
Fri 01:02:00 AM 44.7333 -60.6500 71° East 570 656 33,000  Level Moncton Center
Fri 01:03:13 AM 44.8000 -60.3833 71° East 570 656 33,000  Level Gander Center
Fri 01:04:00 AM 44.8500 -60.2167 67° East 570 656 33,000  Level Moncton Center
Fri 01:05:13 AM 44.9167 -59.9833 68° East 570 656 33,000  Level Gander Center
Fri 01:07:00 AM 45.0033 -59.6420 70° East  Level FlightAware Approximate
Fri 01:14:00 AM 45.3305 -58.3178 69° East  Level FlightAware Approximate
Fri 01:15:00 AM 45.3800 -58.1295 69° East  Level FlightAware Approximate
Fri 01:16:00 AM 45.4291 -57.9409 70° East  Level FlightAware Approximate
Fri 01:17:00 AM 45.4779 -57.7519 70° East  Level FlightAware Approximate
Fri 01:17:13 AM 45.5833 -57.4500 70° East 570 656 33,000  Level Gander Center
Fri 01:18:00 AM 45.5264 -57.5627 70° East  Level FlightAware Approximate
Fri 01:18:13 AM 45.6333 -57.2333 72° East 570 656 33,000  Level Gander Center
Fri 01:19:00 AM 45.5746 -57.3731 70° East  Level FlightAware Approximate
Fri 01:19:13 AM 45.6833 -57.0000 73° East 570 656 33,000  Level Gander Center
Fri 01:20:00 AM 45.6225 -57.1831 70° East  Level FlightAware Approximate
Fri 01:20:00 AM 45.7167 -56.8333 74° East 570 656 33,000  Level Moncton Center
Fri 01:21:00 AM 45.6701 -56.9929 70° East  Level FlightAware Approximate
Fri 01:21:13 AM 45.7833 -56.5667 70° East 580 667 33,000  Level Gander Center
Fri 01:22:00 AM 45.7173 -56.8023 70° East  Level FlightAware Approximate
Fri 01:23:00 AM 45.8638 -56.2170 72° East  Level FlightAware Approximate
Fri 01:30:00 AM 46.1639 -54.8604 72° East  Level FlightAware Approximate
Fri 01:30:13 AM 46.1833 -54.5833 73° East 580 667 33,000  Level Gander Center
Fri 01:31:00 AM 46.2054 -54.6654 73° East  Level FlightAware Approximate
Fri 01:31:13 AM 46.2333 -54.3500 73° East 580 667 33,000  Level Gander Center
Fri 01:32:00 AM 46.2607 -54.4775 72° East  Level Estimated
Fri 01:32:13 AM 46.2833 -54.1333 71° East 590 679 33,000  Level Gander Center
Fri 01:33:00 AM 46.3026 -54.2823 73° East  Level FlightAware Approximate
Fri 01:33:13 AM 46.3167 -53.9000 78° East 590 679 33,000  Level Gander Center
Fri 01:34:00 AM 46.3441 -54.0868 73° East  Level FlightAware Approximate
Fri 01:34:00 AM 46.3500 -53.7167 75° East 590 679 33,000  Level Moncton Center
Fri 01:35:00 AM 46.3853 -53.8910 73° East  Level FlightAware Approximate
Fri 01:35:13 AM 46.4000 -53.4333 76° East 590 679 33,000  Level Gander Center
Fri 01:36:00 AM 46.4333 -53.2500 75° East 590 679 33,000  Level Moncton Center
Fri 01:37:13 AM 46.4833 -52.9833 75° East 580 667 33,000  Level Gander Center
Fri 01:39:00 AM 46.6203 -52.6232 61° Northeast  Level FlightAware Approximate
Fri 01:44:00 AM 46.7500 -51.4333 70° East 590 679 33,000  Level Moncton Center
Fri 01:46:00 AM 46.9786 -51.2744 69° East  Level Estimated
Fri 01:46:00 AM 46.8502 -51.0475 69° East  Level Estimated
Fri 01:47:00 AM 47.0291 -51.0805 69° East  Level FlightAware Approximate
Fri 01:48:00 AM 47.0787 -50.8860 70° East  Level Estimated
Fri 01:49:00 AM 47.1273 -50.6908 70° East  Level FlightAware Approximate
Fri 01:53:00 AM 47.1907 -49.6858 69° East  Level Estimated
Fri 01:54:00 AM 47.2380 -49.4898 70° East  Level Estimated
Fri 01:55:00 AM 47.2850 -49.2935 71° East  Level Estimated
Fri 01:56:00 AM 47.3314 -49.0979 71° East  Level Estimated
Fri 01:57:00 AM 47.3774 -48.9019 71° East  Level Estimated
Fri 01:58:00 AM 47.4232 -48.7056 71° East  Level Estimated
Fri 01:59:00 AM 47.4686 -48.5090 71° East  Level Estimated
Fri 02:00:00 AM 47.5136 -48.3120 71° East  Level Estimated
Fri 02:01:00 AM 47.5584 -48.1146 71° East  Level Estimated
Fri 02:02:00 AM 47.6027 -47.9170 72° East  Level Estimated
Fri 02:03:00 AM 47.6468 -47.7189 72° East  Level Estimated
Fri 02:04:00 AM 47.6905 -47.5206 72° East  Level Estimated
Fri 02:05:00 AM 47.7339 -47.3219 72° East  Level Estimated
Fri 02:06:00 AM 47.7769 -47.1229 72° East  Level Estimated
Fri 02:07:00 AM 47.8195 -46.9236 72° East  Level Estimated
Fri 02:08:00 AM 47.8619 -46.7239 72° East  Level Estimated
Fri 02:09:00 AM 47.9039 -46.5240 73° East  Level Estimated
Fri 02:10:00 AM 47.9455 -46.3237 73° East  Level Estimated
Fri 02:11:00 AM 47.9868 -46.1230 73° East  Level Estimated
Fri 02:12:00 AM 48.0277 -45.9221 73° East  Level Estimated
Fri 02:13:00 AM 48.0683 -45.7208 73° East  Level Estimated
Fri 02:14:00 AM 48.1085 -45.5193 73° East  Level Estimated
Fri 02:15:00 AM 48.1484 -45.3174 73° East  Level Estimated
Fri 02:16:00 AM 48.1879 -45.1152 74° East  Level Estimated
Fri 02:17:00 AM 48.2271 -44.9126 74° East  Level Estimated
Fri 02:18:00 AM 48.2659 -44.7098 74° East  Level Estimated
Fri 02:19:00 AM 48.3044 -44.5067 74° East  Level Estimated
Fri 02:20:00 AM 48.3425 -44.3032 74° East  Level Estimated
Fri 02:21:00 AM 48.3802 -44.0995 74° East  Level Estimated
Fri 02:22:00 AM 48.4176 -43.8955 74° East  Level Estimated
Fri 02:23:00 AM 48.4546 -43.6911 75° East  Level Estimated
Fri 02:24:00 AM 48.4913 -43.4865 75° East  Level Estimated
Fri 02:25:00 AM 48.5276 -43.2816 75° East  Level Estimated
Fri 02:26:00 AM 48.5635 -43.0763 75° East  Level Estimated
Fri 02:27:00 AM 48.5991 -42.8708 75° East  Level Estimated
Fri 02:28:00 AM 48.6343 -42.6650 75° East  Level Estimated
Fri 02:29:00 AM 48.6691 -42.4589 76° East  Level Estimated
Fri 02:30:00 AM 48.7035 -42.2526 76° East  Level Estimated
Fri 02:31:00 AM 48.7376 -42.0459 76° East  Level Estimated
Fri 02:32:00 AM 48.7714 -41.8390 76° East  Level Estimated
Fri 02:33:00 AM 48.8047 -41.6318 76° East  Level Estimated
Fri 02:34:00 AM 48.8377 -41.4243 76° East  Level Estimated
Fri 02:35:00 AM 48.8703 -41.2165 77° East  Level Estimated
Fri 02:36:00 AM 48.9025 -41.0085 77° East  Level Estimated
Fri 02:37:00 AM 48.9344 -40.8002 77° East  Level Estimated
Fri 02:38:00 AM 48.9659 -40.5917 77° East  Level Estimated
Fri 02:39:00 AM 48.9970 -40.3829 77° East  Level Estimated
Fri 02:40:00 AM 49.0277 -40.1738 77° East  Level Estimated
Fri 02:41:00 AM 49.0581 -39.9644 77° East  Level Estimated
Fri 02:42:00 AM 49.0880 -39.7548 78° East  Level Estimated
Fri 02:43:00 AM 49.1176 -39.5450 78° East  Level Estimated
Fri 02:44:00 AM 49.1470 -39.3339 78° East  Level Estimated
Fri 02:45:00 AM 49.1759 -39.1224 78° East  Level Estimated
Fri 02:46:00 AM 49.2045 -38.9108 78° East  Level Estimated
Fri 02:47:00 AM 49.2327 -38.6989 78° East  Level Estimated
Fri 02:48:00 AM 49.2606 -38.4867 79° East  Level Estimated
Fri 02:49:00 AM 49.2880 -38.2744 79° East  Level Estimated
Fri 02:50:00 AM 49.3150 -38.0617 79° East  Level Estimated
Fri 02:51:00 AM 49.3416 -37.8489 79° East  Level Estimated
Fri 02:52:00 AM 49.3679 -37.6358 79° East  Level Estimated
Fri 02:53:00 AM 49.3937 -37.4225 79° East  Level Estimated
Fri 02:54:00 AM 49.4192 -37.2090 80° East  Level Estimated
Fri 02:55:00 AM 49.4443 -36.9953 80° East  Level Estimated
Fri 02:56:00 AM 49.4690 -36.7813 80° East  Level Estimated
Fri 02:57:00 AM 49.4933 -36.5671 80° East  Level Estimated
Fri 02:58:00 AM 49.5172 -36.3528 80° East  Level Estimated
Fri 02:59:00 AM 49.5406 -36.1382 80° East  Level Estimated
Fri 03:00:00 AM 49.5637 -35.9234 81° East  Level Estimated
Fri 03:01:00 AM 49.5864 -35.7084 81° East  Level Estimated
Fri 03:02:00 AM 49.6087 -35.4932 81° East  Level Estimated
Fri 03:03:00 AM 49.6306 -35.2778 81° East  Level Estimated
Fri 03:04:00 AM 49.6521 -35.0622 81° East  Level Estimated
Fri 03:05:00 AM 49.6732 -34.8464 81° East  Level Estimated
Fri 03:06:00 AM 49.6939 -34.6305 81° East  Level Estimated
Fri 03:07:00 AM 49.7142 -34.4143 82° East  Level Estimated
Fri 03:08:00 AM 49.7341 -34.1980 82° East  Level Estimated
Fri 03:09:00 AM 49.7536 -33.9815 82° East  Level Estimated
Fri 03:10:00 AM 49.7727 -33.7648 82° East  Level Estimated
Fri 03:11:00 AM 49.7914 -33.5480 82° East  Level Estimated
Fri 03:12:00 AM 49.8097 -33.3310 82° East  Level Estimated
Fri 03:13:00 AM 49.8275 -33.1138 83° East  Level Estimated
Fri 03:14:00 AM 49.8450 -32.8965 83° East  Level Estimated
Fri 03:15:00 AM 49.8621 -32.6790 83° East  Level Estimated
Fri 03:16:00 AM 49.8787 -32.4614 83° East  Level Estimated
Fri 03:17:00 AM 49.8950 -32.2436 83° East  Level Estimated
Fri 03:18:00 AM 49.9108 -32.0257 83° East  Level Estimated
Fri 03:19:00 AM 49.9262 -31.8076 84° East  Level Estimated
Fri 03:20:00 AM 49.9412 -31.5895 84° East  Level Estimated
Fri 03:21:00 AM 49.9559 -31.3711 84° East  Level Estimated
Fri 03:22:00 AM 49.9701 -31.1526 84° East  Level Estimated
Fri 03:23:00 AM 49.9838 -30.9340 84° East  Level Estimated
Fri 03:24:00 AM 49.9972 -30.7153 84° East  Level Estimated
Fri 03:25:00 AM 50.0102 -30.4965 85° East  Level Estimated
Fri 03:26:00 AM 50.0228 -30.2775 85° East  Level Estimated
Fri 03:27:00 AM 50.0349 -30.0585 85° East  Level Estimated
Fri 03:28:00 AM 50.0466 -29.8393 85° East  Level Estimated
Fri 03:29:00 AM 50.0579 -29.6200 85° East  Level Estimated
Fri 03:30:00 AM 50.0688 -29.4006 85° East  Level Estimated
Fri 03:31:00 AM 50.0793 -29.1812 86° East  Level Estimated
Fri 03:32:00 AM 50.0894 -28.9616 86° East  Level Estimated
Fri 03:33:00 AM 50.0991 -28.7419 86° East  Level Estimated
Fri 03:34:00 AM 50.1083 -28.5222 86° East  Level Estimated
Fri 03:35:00 AM 50.1171 -28.3023 86° East  Level Estimated
Fri 03:36:00 AM 50.1256 -28.0824 86° East  Level Estimated
Fri 03:37:00 AM 50.1336 -27.8624 87° East  Level Estimated
Fri 03:38:00 AM 50.1412 -27.6424 87° East  Level Estimated
Fri 03:39:00 AM 50.1483 -27.4222 87° East  Level Estimated
Fri 03:40:00 AM 50.1551 -27.2020 87° East  Level Estimated
Fri 03:41:00 AM 50.1614 -26.9818 87° East  Level Estimated
Fri 03:42:00 AM 50.1673 -26.7615 88° East  Level Estimated
Fri 03:43:00 AM 50.1728 -26.5411 88° East  Level Estimated
Fri 03:44:00 AM 50.1779 -26.3207 88° East  Level Estimated
Fri 03:45:00 AM 50.1826 -26.1003 88° East  Level Estimated
Fri 03:46:00 AM 50.1869 -25.8798 88° East  Level Estimated
Fri 03:47:00 AM 50.1907 -25.6592 88° East  Level Estimated
Fri 03:48:00 AM 50.1941 -25.4387 89° East  Level Estimated
Fri 03:49:00 AM 50.1971 -25.2181 89° East  Level Estimated
Fri 03:50:00 AM 50.1997 -24.9974 89° East  Level Estimated
Fri 03:51:00 AM 50.2019 -24.7768 89° East  Level Estimated
Fri 03:52:00 AM 50.2036 -24.5561 89° East  Level Estimated
Fri 03:53:00 AM 50.2049 -24.3354 89° East  Level Estimated
Fri 03:54:00 AM 50.2058 -24.1148 90° East  Level Estimated
Fri 03:55:00 AM 50.2063 -23.8941 90° East  Level Estimated
Fri 03:56:00 AM 50.2064 -23.6734 90° East  Level Estimated
Fri 03:57:00 AM 50.2061 -23.4527 90° East  Level Estimated
Fri 03:58:00 AM 50.2053 -23.2320 90° East  Level Estimated
Fri 03:59:00 AM 50.2041 -23.0113 90° East  Level Estimated
Fri 04:00:00 AM 50.2025 -22.7906 91° East  Level Estimated
Fri 04:01:00 AM 50.2005 -22.5700 91° East  Level Estimated
Fri 04:02:00 AM 50.1981 -22.3493 91° East  Level Estimated
Fri 04:03:00 AM 50.1952 -22.1287 91° East  Level Estimated
Fri 04:04:00 AM 50.1920 -21.9085 91° East  Level Estimated
Fri 04:05:00 AM 50.1883 -21.6887 91° East  Level Estimated
Fri 04:06:00 AM 50.1842 -21.4686 92° East  Level Estimated
Fri 04:07:00 AM 50.1797 -21.2485 92° East  Level Estimated
Fri 04:08:00 AM 50.1748 -21.0285 92° East  Level Estimated
Fri 04:09:00 AM 50.1694 -20.8084 92° East  Level Estimated
Fri 04:10:00 AM 50.1637 -20.5885 92° East  Level Estimated
Fri 04:11:00 AM 50.1575 -20.3686 92° East  Level Estimated
Fri 04:12:00 AM 50.1509 -20.1487 93° East  Level Estimated
Fri 04:13:00 AM 50.1439 -19.9290 93° East  Level Estimated
Fri 04:14:00 AM 50.1365 -19.7092 93° East  Level Estimated
Fri 04:15:00 AM 50.1287 -19.4896 93° East  Level Estimated
Fri 04:16:00 AM 50.1204 -19.2700 93° East  Level Estimated
Fri 04:17:00 AM 50.1117 -19.0506 93° East  Level Estimated
Fri 04:18:00 AM 50.1027 -18.8311 94° East  Level Estimated
Fri 04:19:00 AM 50.0932 -18.6118 94° East  Level Estimated
Fri 04:20:00 AM 50.0833 -18.3926 94° East  Level Estimated
Fri 04:21:00 AM 50.0730 -18.1734 94° East  Level Estimated
Fri 04:22:00 AM 50.0622 -17.9544 94° East  Level Estimated
Fri 04:23:00 AM 50.0511 -17.7354 94° East  Level Estimated
Fri 04:24:00 AM 50.0396 -17.5166 95° East  Level Estimated
Fri 04:25:00 AM 50.0276 -17.2978 95° East  Level Estimated
Fri 04:26:00 AM 50.0152 -17.0792 95° East  Level Estimated
Fri 04:27:00 AM 50.0024 -16.8607 95° East  Level Estimated
Fri 04:28:00 AM 49.9893 -16.6423 95° East  Level Estimated
Fri 04:29:00 AM 49.9757 -16.4240 95° East  Level Estimated
Fri 04:30:00 AM 49.9617 -16.2059 96° East  Level Estimated
Fri 04:31:00 AM 49.9472 -15.9879 96° East  Level Estimated
Fri 04:32:00 AM 49.9324 -15.7700 96° East  Level Estimated
Fri 04:33:00 AM 49.9172 -15.5522 96° East  Level Estimated
Fri 04:34:00 AM 49.9015 -15.3346 96° East  Level Estimated
Fri 04:35:00 AM 49.8855 -15.1172 96° East  Level Estimated
Fri 04:36:00 AM 49.8690 -14.8998 97° East  Level Estimated
Fri 04:37:00 AM 49.8522 -14.6827 97° East  Level Estimated
Fri 04:38:00 AM 49.8349 -14.4656 97° East  Level Estimated
Fri 04:39:00 AM 49.8172 -14.2488 97° East  Level Estimated
Fri 04:40:00 AM 49.7991 -14.0321 97° East  Level Estimated
Fri 04:41:00 AM 49.7807 -13.8155 97° East  Level Estimated
Fri 04:41:24 AM 50.3370 -11.7390 98° East 484 557 35,000  Level FlightAware ADS-B
Fri 04:42:00 AM 49.7618 -13.5992 98° East  Level Estimated
Fri 04:42:05 AM 50.3080 -11.6100 109° East 485 558 35,000  Level FlightAware ADS-B
Fri 04:42:44 AM 50.2810 -11.4880 109° East 485 558 35,000  Level FlightAware ADS-B
Fri 04:43:32 AM 50.2510 -11.3520 109° East 485 558 35,000  Level FlightAware ADS-B
Fri 04:44:15 AM 50.2110 -11.1800 110° East 479 551 35,000  Level FlightAware ADS-B
Fri 04:44:53 AM 50.1880 -11.0740 109° East 479 551 35,000  Level FlightAware ADS-B
Fri 04:45:41 AM 50.1580 -10.9410 109° East 479 551 35,000  Level FlightAware ADS-B
Fri 04:46:17 AM 50.1360 -10.8410 109° East 479 551 35,000  Level FlightAware ADS-B
Fri 04:47:03 AM 50.1080 -10.7130 109° East 479 551 35,000  Level FlightAware ADS-B
Fri 04:47:40 AM 50.0850 -10.6100 109° East 479 551 35,000  Level FlightAware ADS-B
Fri 04:48:24 AM 50.0250 -10.3790 112° Southeast 473 544 35,000  Level FlightAware ADS-B
Fri 04:49:04 AM 49.9990 -10.2700 110° East 473 544 35,000  Level FlightAware ADS-B
Fri 04:50:01 AM 49.9510 -10.0690 110° East 476 548 35,000  Level FlightAware ADS-B
Fri 04:50:47 AM 49.9170 -9.9250 110° East 479 551 35,000  Level FlightAware ADS-B
Fri 04:51:28 AM 49.8850 -9.7960 111° Southeast 479 551 35,000  Level FlightAware ADS-B
Fri 04:52:10 AM 49.8510 -9.6550 110° East 480 552 35,000  Level FlightAware ADS-B
Fri 04:52:52 AM 49.8180 -9.5200 111° Southeast 480 552 35,000  Level FlightAware ADS-B
Fri 04:53:34 AM 49.7850 -9.3850 111° Southeast 479 551 35,000  Level FlightAware ADS-B
Fri 04:54:16 AM 49.7510 -9.2480 111° Southeast 479 551 35,000  Level FlightAware ADS-B
Fri 04:55:00 AM 49.7150 -9.1080 112° Southeast 478 550 35,000 -73 Level FlightAware ADS-B
Fri 04:55:38 AM 49.6844 -8.9854 112° Southeast 490 564 34,900  Descending FlightAware UK
Fri 04:55:41 AM 49.6840 -8.9800 112° Southeast 478 550 35,000  Climbing FlightAware ADS-B
Fri 04:55:56 AM 49.6700 -8.9282 112° Southeast 490 564 34,900 -182 Descending FlightAware UK
Fri 04:56:14 AM 49.6555 -8.8709 111° Southeast 490 564 34,900 207 Level FlightAware UK
Fri 04:56:25 AM 49.6480 -8.8410 111° Southeast 478 550 35,000  Climbing FlightAware ADS-B
Fri 04:56:44 AM 49.6313 -8.7758 111° Southeast 492 566 34,900 -162 Descending FlightAware UK
Fri 04:57:02 AM 49.6170 -8.7186 111° Southeast 492 566 34,900 286 Level FlightAware UK
Fri 04:57:05 AM 49.6170 -8.7200 111° Southeast 478 550 35,000  Climbing FlightAware ADS-B
Fri 04:57:20 AM 49.6024 -8.6617 111° Southeast 490 564 34,900 -182 Descending FlightAware UK
Fri 04:57:38 AM 49.5877 -8.6049 112° Southeast 490 564 34,900 231 Level FlightAware UK
Fri 04:57:46 AM 49.5830 -8.5840 112° Southeast 477 549 35,000  Climbing FlightAware ADS-B
Fri 04:58:02 AM 49.5682 -8.5291 112° Southeast 488 562 34,900 -176 Descending FlightAware UK
Fri 04:58:20 AM 49.5535 -8.4724 112° Southeast 492 566 34,900 214 Level FlightAware UK
Fri 04:58:30 AM 49.5460 -8.4460 112° Southeast 477 549 35,000  Climbing FlightAware ADS-B
Fri 04:58:50 AM 49.5291 -8.3779 112° Southeast 490 564 34,900 -158 Descending FlightAware UK
Fri 04:59:08 AM 49.5144 -8.3212 112° Southeast 490 564 34,900 316 Level FlightAware UK
Fri 04:59:09 AM 49.5170 -8.3290 112° Southeast 476 548 35,000  Climbing FlightAware ADS-B
Fri 04:59:26 AM 49.4998 -8.2646 112° Southeast 490 564 34,900 -171 Descending FlightAware UK
Fri 04:59:44 AM 49.4842 -8.2087 113° Southeast 488 562 34,900 214 Level FlightAware UK
Fri 04:59:54 AM 49.4740 -8.1810 113° Southeast 476 548 35,000  Climbing FlightAware ADS-B
Fri 05:00:14 AM 49.4542 -8.1185 113° Southeast 490 564 34,900 -158 Descending FlightAware UK
Fri 05:00:32 AM 49.4359 -8.0647 118° Southeast 490 564 34,900 300 Level FlightAware UK
Fri 05:00:34 AM 49.4340 -8.0600 118° Southeast 475 547 35,000  Climbing FlightAware ADS-B
Fri 05:00:50 AM 49.4171 -8.0105 118° Southeast 490 564 34,900 -176 Descending FlightAware UK
Fri 05:01:08 AM 49.3983 -7.9570 118° Southeast 490 564 34,900 214 Level FlightAware UK
Fri 05:01:18 AM 49.3890 -7.9320 118° Southeast 475 547 35,000  Climbing FlightAware ADS-B
Fri 05:01:38 AM 49.3664 -7.8685 118° Southeast 490 564 34,900 -158 Descending FlightAware UK
Fri 05:01:56 AM 49.3472 -7.8156 119° Southeast 490 564 34,900 300 Level FlightAware UK
Fri 05:01:58 AM 49.3510 -7.8260 119° Southeast 473 544 35,000  Climbing FlightAware ADS-B
Fri 05:02:14 AM 49.3282 -7.7627 119° Southeast 488 562 34,900 -150 Descending FlightAware UK
Fri 05:02:38 AM 49.3026 -7.6922 119° Southeast 488 562 34,900 214 Level FlightAware UK
Fri 05:02:42 AM 49.2990 -7.6830 119° Southeast 474 545 35,000  Climbing FlightAware ADS-B
Fri 05:03:02 AM 49.2772 -7.6218 119° Southeast 490 564 34,900 -158 Descending FlightAware UK
Fri 05:03:20 AM 49.2581 -7.5691 119° Southeast 492 566 34,900 300 Level FlightAware UK
Fri 05:03:22 AM 49.2580 -7.5680 119° Southeast 473 544 35,000  Climbing FlightAware ADS-B
Fri 05:03:38 AM 49.2390 -7.5163 119° Southeast 490 564 34,900 -176 Descending FlightAware UK
Fri 05:03:56 AM 49.2200 -7.4636 119° Southeast 490 564 34,900 250 Level FlightAware UK
Fri 05:04:02 AM 49.2160 -7.4510 119° Southeast 472 543 35,000  Climbing FlightAware ADS-B
Fri 05:04:20 AM 49.1947 -7.3935 119° Southeast 490 564 34,900 -167 Descending FlightAware UK
Fri 05:04:38 AM 49.1757 -7.3410 119° Southeast 488 562 34,900 231 Level FlightAware UK
Fri 05:04:46 AM 49.1690 -7.3230 119° Southeast 471 542 35,000  Climbing FlightAware ADS-B
Fri 05:05:02 AM 49.1506 -7.2710 119° Southeast 488 562 34,900 -176 Descending FlightAware UK
Fri 05:05:20 AM 49.1316 -7.2187 119° Southeast 490 564 34,900 214 Level FlightAware UK
Fri 05:05:30 AM 49.1230 -7.1950 119° Southeast 471 542 35,000  Climbing FlightAware ADS-B
Fri 05:05:56 AM 49.0935 -7.1143 119° Southeast 490 564 34,900  Descending FlightAware UK
Fri 05:06:10 AM 49.0800 -7.0760 119° Southeast 471 542 35,000  Climbing FlightAware ADS-B
Fri 05:06:26 AM 49.0616 -7.0274 119° Southeast 488 562 34,900 -176 Descending FlightAware UK
Fri 05:06:44 AM 49.0425 -6.9753 119° Southeast 490 564 34,900 207 Level FlightAware UK
Fri 05:06:55 AM 49.0330 -6.9520 119° Southeast 470 541 35,000  Climbing FlightAware ADS-B
Fri 05:07:15 AM 49.0104 -6.8881 119° Southeast 490 564 34,900 -158 Descending FlightAware UK
Fri 05:07:33 AM 48.9914 -6.8362 119° Southeast 490 564 34,900 300 Level FlightAware UK
Fri 05:07:35 AM 48.9900 -6.8340 119° Southeast 467 537 35,000  Climbing FlightAware ADS-B
Fri 05:07:51 AM 48.9723 -6.7845 119° Southeast 492 566 34,900 -176 Descending FlightAware UK
Fri 05:08:09 AM 48.9533 -6.7332 119° Southeast 490 564 34,900 214 Level FlightAware UK
Fri 05:08:19 AM 48.9440 -6.7080 119° Southeast 463 533 35,000  Climbing FlightAware ADS-B
Fri 05:08:39 AM 48.9216 -6.6482 119° Southeast 488 562 34,900 -158 Descending FlightAware UK
Fri 05:08:57 AM 48.9027 -6.5973 119° Southeast 488 562 34,900 300 Level FlightAware UK
Fri 05:08:59 AM 48.9020 -6.5950 119° Southeast 461 531 35,000  Climbing FlightAware ADS-B
Fri 05:09:15 AM 48.8839 -6.5465 119° Southeast 488 562 34,900 -176 Descending FlightAware UK
Fri 05:09:33 AM 48.8651 -6.4959 119° Southeast 486 559 34,900 240 Level FlightAware UK
Fri 05:09:40 AM 48.8580 -6.4800 119° Southeast 460 529 35,000  Climbing FlightAware ADS-B
Fri 05:09:57 AM 48.8401 -6.4287 119° Southeast 486 559 34,900 -171 Descending FlightAware UK
Fri 05:10:15 AM 48.8214 -6.3783 119° Southeast 486 559 34,900 240 Level FlightAware UK
Fri 05:10:22 AM 48.8140 -6.3620 119° Southeast 459 528 35,000  Climbing FlightAware ADS-B
Fri 05:10:39 AM 48.7962 -6.3116 119° Southeast 486 559 34,900 -171 Descending FlightAware UK
Fri 05:10:57 AM 48.7774 -6.2615 120° Southeast 484 557 34,900 261 Level FlightAware UK
Fri 05:11:02 AM 48.7740 -6.2530 120° Southeast 458 527 35,000  Climbing FlightAware ADS-B
Fri 05:11:21 AM 48.7522 -6.1948 120° Southeast 486 559 34,900 -162 Descending FlightAware UK
Fri 05:11:39 AM 48.7331 -6.1448 120° Southeast 486 559 34,900 207 Level FlightAware UK
Fri 05:11:50 AM 48.7220 -6.1170 120° Southeast 459 528 35,000  Climbing FlightAware ADS-B
Fri 05:12:09 AM 48.7013 -6.0614 120° Southeast 486 559 34,900 -162 Descending FlightAware UK
Fri 05:12:27 AM 48.6822 -6.0115 120° Southeast 484 557 34,900 286 Level FlightAware UK
Fri 05:12:30 AM 48.6790 -6.0030 120° Southeast 460 529 35,000  Climbing FlightAware ADS-B
Fri 05:12:45 AM 48.6633 -5.9613 120° Southeast 486 559 34,900 -182 Descending FlightAware UK
Fri 05:13:03 AM 48.6442 -5.9111 120° Southeast 488 562 34,900 231 Level FlightAware UK
Fri 05:13:11 AM 48.6360 -5.8940 120° Southeast 461 531 35,000  Climbing FlightAware ADS-B
Fri 05:13:27 AM 48.6186 -5.8444 120° Southeast 486 559 34,900 -176 Descending FlightAware UK
Fri 05:13:45 AM 48.5991 -5.7937 120° Southeast 486 559 34,900 222 Level FlightAware UK
Fri 05:13:54 AM 48.5900 -5.7710 120° Southeast 463 533 35,000  Climbing FlightAware ADS-B
Fri 05:14:09 AM 48.5733 -5.7267 120° Southeast 488 562 34,900 -154 Descending FlightAware UK
Fri 05:14:33 AM 48.5475 -5.6596 120° Southeast 490 564 34,900 240 Level FlightAware UK
Fri 05:14:34 AM 48.5470 -5.6590 120° Southeast 462 532 35,000  Climbing FlightAware ADS-B
Fri 05:14:51 AM 48.5280 -5.6093 120° Southeast 490 564 34,900 -171 Descending FlightAware UK
Fri 05:15:09 AM 48.5086 -5.5590 120° Southeast 490 564 34,900 261 Level FlightAware UK
Fri 05:15:14 AM 48.5030 -5.5450 120° Southeast 462 532 35,000  Climbing FlightAware ADS-B
Fri 05:15:33 AM 48.4830 -5.4922 120° Southeast 488 562 34,900 -162 Descending FlightAware UK
Fri 05:15:51 AM 48.4637 -5.4422 120° Southeast 486 559 34,900 222 Level FlightAware UK
Fri 05:16:00 AM 48.4530 -5.4170 120° Southeast 462 532 35,000  Climbing FlightAware ADS-B
Fri 05:16:15 AM 48.4378 -5.3759 120° Southeast 486 559 34,900 -182 Descending FlightAware UK
Fri 05:16:33 AM 48.4183 -5.3263 121° Southeast 488 562 34,900 222 Level FlightAware UK
Fri 05:16:42 AM 48.4080 -5.3010 121° Southeast 461 531 35,000  Climbing FlightAware ADS-B
Fri 05:17:21 AM 48.3665 -5.1939 121° Southeast 488 562 34,900  Descending FlightAware UK
Fri 05:17:22 AM 48.3650 -5.1930 121° Southeast 461 531 35,000  Climbing FlightAware ADS-B
Fri 05:17:39 AM 48.3470 -5.1444 121° Southeast 492 566 34,900  Descending FlightAware UK
Fri 05:18:06 AM 48.3180 -5.0730 121° Southeast 458 527 35,000  Climbing FlightAware ADS-B
Fri 05:18:45 AM 48.2755 -4.9632 121° Southeast 488 562 34,900  Descending FlightAware UK
Fri 05:18:46 AM 48.2750 -4.9630 121° Southeast 456 525 35,000  Climbing FlightAware ADS-B
Fri 05:19:03 AM 48.2560 -4.9142 121° Southeast 488 562 34,900  Descending FlightAware UK
Fri 05:19:32 AM 48.2240 -4.8360 121° Southeast 455 524 35,000 87 Climbing FlightAware ADS-B
Fri 05:20:12 AM 48.1810 -4.7280 121° Southeast 452 520 35,000  Level FlightAware ADS-B
Fri 05:20:56 AM 48.1340 -4.6100 121° Southeast 449 517 35,000  Level FlightAware ADS-B
Fri 05:21:36 AM 48.0920 -4.5070 121° Southeast 449 517 35,000  Level FlightAware ADS-B
Fri 05:22:20 AM 48.0440 -4.3910 122° Southeast 448 516 35,000  Level FlightAware ADS-B
Fri 05:22:58 AM 48.0010 -4.2890 122° Southeast 448 516 35,000  Level FlightAware ADS-B
Fri 05:23:44 AM 47.9510 -4.1710 122° Southeast 449 517 35,000  Level FlightAware ADS-B
Fri 05:24:24 AM 47.9080 -4.0690 122° Southeast 449 517 35,000  Level FlightAware ADS-B
Fri 05:25:04 AM 47.8610 -3.9620 123° Southeast 450 518 35,000  Level FlightAware ADS-B
Fri 05:25:48 AM 47.8120 -3.8440 122° Southeast 452 520 35,000  Level FlightAware ADS-B
Fri 05:26:28 AM 47.7690 -3.7370 121° Southeast 455 524 35,000  Level FlightAware ADS-B
Fri 05:27:11 AM 47.7220 -3.6250 122° Southeast 456 525 35,000  Level FlightAware ADS-B
Fri 05:27:55 AM 47.6740 -3.5080 121° Southeast 457 526 35,000  Level FlightAware ADS-B
Fri 05:28:35 AM 47.6310 -3.4000 121° Southeast 458 527 35,000  Level FlightAware ADS-B
Fri 05:29:19 AM 47.5840 -3.2810 120° Southeast 459 528 35,000  Level FlightAware ADS-B
Fri 05:29:59 AM 47.5400 -3.1720 121° Southeast 460 529 35,000  Level FlightAware ADS-B
Fri 05:30:41 AM 47.4940 -3.0580 121° Southeast 461 531 35,000  Level FlightAware ADS-B
Fri 05:31:25 AM 47.4470 -2.9390 120° Southeast 461 531 35,000  Level FlightAware ADS-B
Fri 05:32:05 AM 47.4020 -2.8290 121° Southeast 460 529 35,000  Level FlightAware ADS-B
Fri 05:32:49 AM 47.3550 -2.7130 121° Southeast 461 531 35,000  Level FlightAware ADS-B
Fri 05:33:29 AM 47.3110 -2.6050 121° Southeast 460 529 35,000  Level FlightAware ADS-B
Fri 05:34:13 AM 47.2620 -2.4850 121° Southeast 459 528 35,000  Level FlightAware ADS-B
Fri 05:34:53 AM 47.2180 -2.3780 121° Southeast 460 529 35,000  Level FlightAware ADS-B
Fri 05:35:35 AM 47.1720 -2.2660 121° Southeast 459 528 35,000  Level FlightAware ADS-B
Fri 05:36:15 AM 47.1280 -2.1610 122° Southeast 459 528 35,000  Level FlightAware ADS-B
Fri 05:36:59 AM 47.0810 -2.0470 121° Southeast 459 528 35,000  Level FlightAware ADS-B
Fri 05:37:41 AM 47.0340 -1.9320 121° Southeast 459 528 35,000  Level FlightAware ADS-B
Fri 05:38:25 AM 46.9840 -1.8160 122° Southeast 459 528 35,000  Level FlightAware ADS-B
Fri 05:39:05 AM 46.9390 -1.7070 121° Southeast 459 528 35,000  Level FlightAware ADS-B
Fri 05:39:43 AM 46.8970 -1.6100 122° Southeast 459 528 35,000  Level FlightAware ADS-B
Fri 05:40:32 AM 46.8420 -1.4810 122° Southeast 459 528 35,000  Level FlightAware ADS-B
Fri 05:41:12 AM 46.7970 -1.3750 122° Southeast 460 529 35,000  Level FlightAware ADS-B
Fri 05:41:56 AM 46.7470 -1.2590 122° Southeast 462 532 35,000  Level FlightAware ADS-B
Fri 05:42:38 AM 46.7010 -1.1480 121° Southeast 463 533 35,000  Level FlightAware ADS-B
Fri 05:43:18 AM 46.6540 -1.0430 123° Southeast 463 533 35,000  Level FlightAware ADS-B
Fri 05:43:58 AM 46.6120 -0.9320 119° Southeast 466 536 35,000  Level FlightAware ADS-B
Fri 05:44:53 AM 46.5710 -0.7830 112° Southeast 465 535 35,000  Level FlightAware ADS-B
Fri 05:45:35 AM 46.5370 -0.6650 113° Southeast 465 535 35,000  Level FlightAware ADS-B
Fri 05:46:13 AM 46.5050 -0.5560 113° Southeast 466 536 35,000  Level FlightAware ADS-B
Fri 05:46:57 AM 46.4690 -0.4250 112° Southeast 465 535 35,000  Level FlightAware ADS-B
Fri 05:47:42 AM 46.4330 -0.2940 112° Southeast 464 534 35,000  Level FlightAware ADS-B
Fri 05:49:06 AM 46.3660 -0.0500 112° Southeast 466 536 35,000  Level FlightAware ADS-B
Fri 05:49:38 AM 46.3380 0.0520 112° Southeast 469 540 35,000  Level FlightAware ADS-B
Fri 05:50:13 AM 46.3120 0.1450 112° Southeast 468 539 35,000  Level FlightAware ADS-B
Fri 05:50:58 AM 46.2760 0.2790 111° Southeast 469 540 35,000  Level FlightAware ADS-B
Fri 05:51:43 AM 46.2380 0.4160 112° Southeast 470 541 35,000  Level FlightAware ADS-B
Fri 05:52:23 AM 46.2060 0.5320 112° Southeast 470 541 35,000  Level FlightAware ADS-B
Fri 05:53:03 AM 46.1750 0.6400 112° Southeast 472 543 35,000  Level FlightAware ADS-B
Fri 05:53:48 AM 46.1370 0.7770 112° Southeast 473 544 35,000  Level FlightAware ADS-B
Fri 05:54:28 AM 46.1050 0.8910 112° Southeast 474 545 35,000  Level FlightAware ADS-B
Fri 05:55:08 AM 46.0730 1.0060 112° Southeast 475 547 35,000  Level FlightAware ADS-B
Fri 05:55:49 AM 46.0440 1.1120 111° Southeast 475 547 35,000  Level FlightAware ADS-B
Fri 05:56:38 AM 46.0110 1.2350 111° Southeast 475 547 35,000  Level FlightAware ADS-B
Fri 05:57:18 AM 45.9630 1.3960 113° Southeast 477 549 35,000  Level FlightAware ADS-B
Fri 05:58:01 AM 45.9350 1.4940 112° Southeast 477 549 35,000  Level FlightAware ADS-B
Fri 05:58:38 AM 45.8950 1.6310 113° Southeast 481 554 35,000  Level FlightAware ADS-B
Fri 05:59:24 AM 45.8550 1.7700 112° Southeast 482 555 35,000  Level FlightAware ADS-B
Fri 06:00:03 AM 45.8220 1.8820 113° Southeast 483 556 35,000  Level FlightAware ADS-B
Fri 06:00:50 AM 45.7810 2.0210 113° Southeast 485 558 35,000  Level FlightAware ADS-B
Fri 06:01:31 AM 45.7430 2.1400 115° Southeast 484 557 35,000  Level FlightAware ADS-B
Fri 06:02:07 AM 45.7060 2.2440 117° Southeast 485 558 35,000  Level FlightAware ADS-B
Fri 06:02:56 AM 45.6570 2.3850 116° Southeast 486 559 35,000  Level FlightAware ADS-B
Fri 06:03:36 AM 45.6180 2.5030 115° Southeast 488 562 35,000  Level FlightAware ADS-B
Fri 06:04:15 AM 45.5800 2.6130 116° Southeast 488 562 35,000  Level FlightAware ADS-B
Fri 06:04:58 AM 45.5360 2.7400 116° Southeast 489 563 35,000  Level FlightAware ADS-B
Fri 06:05:44 AM 45.4920 2.8670 116° Southeast 489 563 35,000  Level FlightAware ADS-B
Fri 06:06:24 AM 45.4510 2.9860 116° Southeast 490 564 35,000  Level FlightAware ADS-B
Fri 06:07:23 AM 45.4050 3.1220 116° Southeast 486 559 35,000  Level FlightAware ADS-B
Fri 06:07:59 AM 45.3580 3.2480 118° Southeast 35,000  Level FlightAware ADS-B
Fri 06:08:44 AM 45.3110 3.3810 117° Southeast 491 565 35,000  Level FlightAware ADS-B
Fri 06:09:24 AM 45.2690 3.5010 116° Southeast 492 566 35,000  Level FlightAware ADS-B
Fri 06:10:09 AM 45.2210 3.6340 117° Southeast 492 566 35,000  Level FlightAware ADS-B
Fri 06:10:50 AM 45.1790 3.7520 117° Southeast 492 566 35,000  Level FlightAware ADS-B
Fri 06:11:34 AM 45.1280 3.8740 121° Southeast 493 567 35,000  Level FlightAware ADS-B
Fri 06:12:24 AM 45.0710 4.0060 121° Southeast 489 563 35,000  Level FlightAware ADS-B
Fri 06:13:08 AM 45.0300 4.1090 119° Southeast 490 564 35,000  Level FlightAware ADS-B
Fri 06:14:05 AM 44.9550 4.2840 121° Southeast 491 565 35,000  Level FlightAware ADS-B
Fri 06:14:45 AM 44.9070 4.3960 121° Southeast 492 566 35,000  Level FlightAware ADS-B
Fri 06:15:30 AM 44.8550 4.5210 120° Southeast 493 567 35,000  Level FlightAware ADS-B
Fri 06:16:10 AM 44.8060 4.6380 121° Southeast 499 574 35,000  Level FlightAware ADS-B
Fri 06:17:10 AM 44.7360 4.7990 121° Southeast 498 573 35,000  Level FlightAware ADS-B
Fri 06:17:45 AM 44.6930 4.9020 120° Southeast 499 574 35,000  Level FlightAware ADS-B
Fri 06:18:35 AM 44.6370 5.0330 121° Southeast 499 574 35,000  Level FlightAware ADS-B
Fri 06:19:15 AM 44.5850 5.1520 122° Southeast 499 574 35,000  Level FlightAware ADS-B
Fri 06:19:55 AM 44.5390 5.2600 121° Southeast 499 574 35,000  Level FlightAware ADS-B
Fri 06:20:40 AM 44.4840 5.3870 121° Southeast 500 575 35,000  Level FlightAware ADS-B
Fri 06:21:20 AM 44.4350 5.4980 122° Southeast 501 577 35,000  Level FlightAware ADS-B
Fri 06:22:00 AM 44.3880 5.6080 121° Southeast 501 577 35,000  Level FlightAware ADS-B
Fri 06:22:45 AM 44.3330 5.7320 122° Southeast 498 573 35,000  Level FlightAware ADS-B
Fri 06:23:25 AM 44.2850 5.8400 122° Southeast 499 574 35,000  Level FlightAware ADS-B
Fri 06:24:10 AM 44.2310 5.9610 122° Southeast 500 575 35,000  Level FlightAware ADS-B
Fri 06:24:50 AM 44.1810 6.0740 122° Southeast 500 575 35,000  Level FlightAware ADS-B
Fri 06:25:31 AM 44.1310 6.1870 122° Southeast 500 575 35,000  Level FlightAware ADS-B
Fri 06:26:10 AM 44.0830 6.2950 122° Southeast 500 575 35,000  Level FlightAware ADS-B
Fri 06:26:55 AM 44.0270 6.4180 122° Southeast 501 577 35,000  Level FlightAware ADS-B
Fri 06:28:05 AM 43.9380 6.6140 122° Southeast 501 577 35,000  Level FlightAware ADS-B
Fri 06:28:45 AM 43.8900 6.7200 122° Southeast 501 577 35,000  Level FlightAware ADS-B
Fri 06:29:30 AM 43.8320 6.8460 123° Southeast 506 582 35,000  Level FlightAware ADS-B
Fri 06:30:12 AM 43.7780 6.9640 122° Southeast 505 581 35,000  Level FlightAware ADS-B
Fri 06:30:52 AM 43.7300 7.0700 122° Southeast 505 581 35,000  Level FlightAware ADS-B
Fri 06:31:32 AM 43.6770 7.1840 123° Southeast 505 581 35,000  Level FlightAware ADS-B
Fri 06:32:18 AM 43.6200 7.3060 123° Southeast 507 583 35,000  Level FlightAware ADS-B
Fri 06:32:54 AM 43.5760 7.4010 123° Southeast 507 583 35,000  Level FlightAware ADS-B
Fri 06:33:39 AM 43.5190 7.5230 123° Southeast 507 583 35,000  Level FlightAware ADS-B
Fri 06:34:27 AM 43.4560 7.6560 123° Southeast 507 583 35,000  Level FlightAware ADS-B
Fri 06:35:07 AM 43.4050 7.7640 123° Southeast 507 583 35,000  Level FlightAware ADS-B
Fri 06:35:47 AM 43.3530 7.8750 123° Southeast 506 582 35,000  Level FlightAware ADS-B
Fri 06:36:33 AM 43.2940 7.9990 123° Southeast 506 582 35,000  Level FlightAware ADS-B
Fri 06:37:13 AM 43.2440 8.1040 123° Southeast 505 581 35,000  Level FlightAware ADS-B
Fri 06:37:53 AM 43.1920 8.2110 124° Southeast 506 582 35,000  Level FlightAware ADS-B
Fri 06:38:37 AM 43.1350 8.3310 123° Southeast 507 583 35,000  Level FlightAware ADS-B
Fri 06:39:15 AM 43.0870 8.4300 124° Southeast 506 582 35,000  Level FlightAware ADS-B
Fri 06:40:03 AM 43.0240 8.5610 123° Southeast 507 583 35,000  Level FlightAware ADS-B
Fri 06:40:43 AM 42.9720 8.6650 124° Southeast 508 585 35,000  Level FlightAware ADS-B
Fri 06:41:27 AM 42.9150 8.7850 123° Southeast 508 585 35,000  Level FlightAware ADS-B
Fri 06:42:09 AM 42.8600 8.8970 124° Southeast 509 586 35,000  Level FlightAware ADS-B
Fri 06:42:45 AM 42.8130 8.9930 124° Southeast 508 585 35,000  Level FlightAware ADS-B
Fri 06:43:30 AM 42.7560 9.1070 124° Southeast 508 585 35,000  Level FlightAware ADS-B
Fri 06:44:12 AM 42.7000 9.2210 124° Southeast 508 585 35,000  Level FlightAware ADS-B
Fri 06:44:51 AM 42.6480 9.3240 124° Southeast 507 583 35,000  Level FlightAware ADS-B
Fri 06:45:35 AM 42.5910 9.4440 123° Southeast 509 586 35,000  Level FlightAware ADS-B
Fri 06:46:19 AM 42.5380 9.5650 121° Southeast 509 586 35,000  Level FlightAware ADS-B
Fri 06:46:59 AM 42.4890 9.6710 122° Southeast 510 587 35,000  Level FlightAware ADS-B
Fri 06:47:39 AM 42.4410 9.7800 121° Southeast 509 586 35,000  Level FlightAware ADS-B
Fri 06:48:27 AM 42.3800 9.9100 122° Southeast 509 586 35,000  Level FlightAware ADS-B
Fri 06:49:06 AM 42.3330 10.0130 122° Southeast 509 586 35,000  Level FlightAware ADS-B
Fri 06:49:48 AM 42.2800 10.1290 122° Southeast 509 586 35,000  Level FlightAware ADS-B
Fri 06:50:33 AM 42.2240 10.2500 122° Southeast 510 587 35,000  Level FlightAware ADS-B
Fri 06:51:13 AM 42.1730 10.3580 122° Southeast 510 587 35,000  Level FlightAware ADS-B
Fri 06:51:51 AM 42.1250 10.4630 122° Southeast 510 587 35,000  Level FlightAware ADS-B
Fri 06:52:35 AM 42.0700 10.5790 123° Southeast 511 588 35,000  Level FlightAware ADS-B
Fri 06:53:18 AM 42.0170 10.6940 122° Southeast 511 588 35,000  Level FlightAware ADS-B
Fri 06:53:56 AM 41.9680 10.7960 123° Southeast 511 588 35,000  Level FlightAware ADS-B
Fri 06:54:42 AM 41.9110 10.9190 122° Southeast 511 588 35,000  Level FlightAware ADS-B
Fri 06:55:22 AM 41.8600 11.0240 123° Southeast 511 588 35,000  Level FlightAware ADS-B
Fri 06:56:07 AM 41.8030 11.1470 122° Southeast 511 588 35,000  Level FlightAware ADS-B
Fri 06:56:47 AM 41.7520 11.2530 123° Southeast 511 588 35,000  Level FlightAware ADS-B
Fri 06:57:32 AM 41.6940 11.3730 123° Southeast 511 588 35,000  Level FlightAware ADS-B
Fri 06:58:12 AM 41.6430 11.4770 123° Southeast 510 587 35,000  Level FlightAware ADS-B
Fri 06:58:52 AM 41.5920 11.5820 123° Southeast 509 586 35,000  Level FlightAware ADS-B
Fri 06:59:32 AM 41.5420 11.6850 123° Southeast 509 586 35,000  Level FlightAware ADS-B
Fri 07:00:17 AM 41.4830 11.8090 122° Southeast 509 586 35,000  Level FlightAware ADS-B
Fri 07:00:57 AM 41.4320 11.9120 123° Southeast 510 587 35,000  Level FlightAware ADS-B
Fri 07:01:42 AM 41.3730 12.0330 123° Southeast 506 582 35,000  Level FlightAware ADS-B
Fri 07:02:27 AM 41.3210 12.1380 123° Southeast 507 583 35,000  Level FlightAware ADS-B
Fri 07:03:06 AM 41.2640 12.2540 123° Southeast 513 590 35,000  Level FlightAware ADS-B
Fri 07:03:46 AM 41.2130 12.3560 124° Southeast 513 590 35,000  Level FlightAware ADS-B
Fri 07:04:31 AM 41.1550 12.4740 123° Southeast 514 592 35,000  Level FlightAware ADS-B
Fri 07:05:11 AM 41.1060 12.5820 121° Southeast 514 592 35,000  Level FlightAware ADS-B
Fri 07:05:51 AM 41.0570 12.6930 120° Southeast 514 592 35,000  Level FlightAware ADS-B
Fri 07:06:36 AM 41.0070 12.8070 120° Southeast 514 592 35,000  Level FlightAware ADS-B
Fri 07:07:16 AM 40.9570 12.9210 120° Southeast 514 592 35,000  Level FlightAware ADS-B
Fri 07:07:56 AM 40.9110 13.0240 121° Southeast 514 592 35,000  Level FlightAware ADS-B
Fri 07:08:41 AM 40.8550 13.1510 120° Southeast 514 592 35,000  Level FlightAware ADS-B
Fri 07:09:34 AM 40.8080 13.2560 121° Southeast 514 592 35,000  Level FlightAware ADS-B
Fri 07:10:20 AM 40.7370 13.4180 120° Southeast 512 589 35,000  Level FlightAware ADS-B
Fri 07:10:58 AM 40.6920 13.5180 121° Southeast 514 592 35,000 568 Level FlightAware ADS-B
Fri 07:11:34 AM 40.6470 13.6150 121° Southeast 518 596 35,700 1,171 Climbing FlightAware ADS-B
Fri 07:12:20 AM 40.5880 13.7460 121° Southeast 521 600 36,600 867 Climbing FlightAware ADS-B
Fri 07:13:04 AM 40.5340 13.8690 120° Southeast 523 602 37,000 286 Climbing FlightAware ADS-B
Fri 07:13:44 AM 40.4850 13.9750 121° Southeast 520 598 37,000  Level FlightAware ADS-B
Fri 07:14:26 AM 40.4320 14.0910 121° Southeast 517 595 37,000  Level FlightAware ADS-B
Fri 07:15:07 AM 40.3820 14.1980 122° Southeast 514 592 37,000  Level FlightAware ADS-B
Fri 07:15:51 AM 40.3280 14.3180 121° Southeast 513 590 37,000  Level FlightAware ADS-B
Fri 07:16:31 AM 40.2790 14.4240 121° Southeast 511 588 37,000  Level FlightAware ADS-B
Fri 07:17:13 AM 40.2270 14.5350 122° Southeast 511 588 37,000  Level FlightAware ADS-B
Fri 07:17:58 AM 40.1730 14.6520 121° Southeast 512 589 37,000  Level FlightAware ADS-B
Fri 07:18:38 AM 40.1240 14.7580 121° Southeast 512 589 37,000  Level FlightAware ADS-B
Fri 07:19:20 AM 40.0710 14.8710 121° Southeast 514 592 37,000  Level FlightAware ADS-B
Fri 07:20:00 AM 40.0220 14.9740 122° Southeast 514 592 37,000  Level FlightAware ADS-B
Fri 07:20:44 AM 39.9670 15.0910 121° Southeast 516 594 37,000  Level FlightAware ADS-B
Fri 07:21:24 AM 39.9160 15.1990 122° Southeast 516 594 37,000  Level FlightAware ADS-B
Fri 07:22:08 AM 39.8610 15.3150 122° Southeast 516 594 37,000  Level FlightAware ADS-B
Fri 07:22:50 AM 39.8090 15.4240 122° Southeast 517 595 37,000  Level FlightAware ADS-B
Fri 07:23:32 AM 39.7560 15.5350 122° Southeast 517 595 37,000  Level FlightAware ADS-B
Fri 07:24:14 AM 39.7030 15.6450 122° Southeast 517 595 37,000  Level FlightAware ADS-B
Fri 07:24:54 AM 39.6520 15.7500 122° Southeast 518 596 37,000  Level FlightAware ADS-B
Fri 07:25:38 AM 39.5960 15.8660 122° Southeast 518 596 37,000  Level FlightAware ADS-B
Fri 07:26:17 AM 39.5460 15.9690 122° Southeast 519 597 37,000  Level FlightAware ADS-B
Fri 07:27:01 AM 39.4900 16.0840 122° Southeast 519 597 37,000  Level FlightAware ADS-B
Fri 07:27:45 AM 39.4330 16.2000 122° Southeast 521 600 37,000  Level FlightAware ADS-B
Fri 07:28:26 AM 39.3820 16.3060 122° Southeast 523 602 37,000  Level FlightAware ADS-B
Fri 07:29:06 AM 39.3310 16.4190 120° Southeast 525 604 37,000  Level FlightAware ADS-B
Fri 07:29:49 AM 39.2920 16.5440 112° Southeast 527 606 37,000  Level FlightAware ADS-B
Fri 07:30:33 AM 39.2510 16.6720 112° Southeast 528 608 37,000  Level FlightAware ADS-B
Fri 07:31:13 AM 39.2140 16.7850 113° Southeast 530 610 37,000  Level FlightAware ADS-B
Fri 07:31:53 AM 39.1790 16.9030 111° Southeast 529 609 37,000  Level FlightAware ADS-B
Fri 07:32:35 AM 39.1420 17.0270 111° Southeast 529 609 37,000  Level FlightAware ADS-B
Fri 07:33:19 AM 39.1140 17.1180 112° Southeast 529 609 37,000  Level FlightAware ADS-B
Fri 07:34:01 AM 39.0740 17.2490 111° Southeast 530 610 37,000  Level FlightAware ADS-B
Fri 07:34:39 AM 39.0440 17.3460 112° Southeast 530 610 37,000  Level FlightAware ADS-B
Fri 07:35:24 AM 39.0010 17.4830 112° Southeast 530 610 37,000  Level FlightAware ADS-B
Fri 07:36:04 AM 38.9660 17.5950 112° Southeast 532 612 37,000  Level FlightAware ADS-B
Fri 07:36:46 AM 38.9270 17.7210 112° Southeast 533 613 37,000  Level FlightAware ADS-B
Fri 07:37:29 AM 38.8910 17.8350 112° Southeast 533 613 37,000  Level FlightAware ADS-B
Fri 07:38:12 AM 38.8450 17.9820 112° Southeast 533 613 37,000  Level FlightAware ADS-B
Fri 07:38:52 AM 38.8060 18.1050 112° Southeast 533 613 37,000  Level FlightAware ADS-B
Fri 07:39:37 AM 38.7710 18.2160 112° Southeast 533 613 37,000  Level FlightAware ADS-B
Fri 07:40:16 AM 38.7320 18.3390 112° Southeast 533 613 37,000  Level FlightAware ADS-B
Fri 07:41:04 AM 38.6890 18.4710 113° Southeast 535 616 37,000  Level FlightAware ADS-B
Fri 07:41:44 AM 38.6470 18.6050 112° Southeast 535 616 37,000  Level FlightAware ADS-B
Fri 07:42:25 AM 38.6110 18.7130 113° Southeast 536 617 37,000  Level FlightAware ADS-B
Fri 07:43:03 AM 38.5800 18.8100 112° Southeast 536 617 37,000  Level FlightAware ADS-B
Fri 07:43:42 AM 38.5410 18.9300 113° Southeast 536 617 37,000  Level FlightAware ADS-B
Fri 07:44:25 AM 38.4900 19.1050 110° East 536 617 37,000  Level FlightAware ADS-B
Fri 07:45:15 AM 38.4510 19.2560 108° East 535 616 37,000  Level FlightAware ADS-B
Fri 07:45:55 AM 38.4200 19.3760 108° East 535 616 37,000  Level FlightAware ADS-B
Fri 07:46:35 AM 38.3870 19.4960 109° East 535 616 37,000  Level FlightAware ADS-B
Fri 07:47:15 AM 38.3560 19.6130 109° East 533 613 37,000  Level FlightAware ADS-B
Fri 07:47:55 AM 38.3230 19.7380 109° East 531 611 37,000 333 Level FlightAware ADS-B
Fri 07:48:45 AM 38.2830 19.8830 109° East 533 613 37,500 565 Climbing FlightAware ADS-B
Fri 07:49:20 AM 38.2540 19.9910 109° East 542 624 37,800 375 Climbing FlightAware ADS-B
Fri 07:50:05 AM 38.2180 20.1240 109° East 546 628 38,000 143 Climbing FlightAware ADS-B
Fri 07:50:44 AM 38.1840 20.2450 110° East 547 629 38,000  Level FlightAware ADS-B
Fri 07:51:25 AM 38.1510 20.3670 109° East 548 631 38,000  Level FlightAware ADS-B
Fri 07:52:11 AM 38.1110 20.5050 110° East 548 631 38,000  Level FlightAware ADS-B
Fri 07:52:57 AM 38.0600 20.6450 115° Southeast 547 629 38,000  Level FlightAware ADS-B
Fri 07:53:35 AM 38.0190 20.7550 115° Southeast 547 629 38,000  Level FlightAware ADS-B
Fri 07:54:17 AM 37.9740 20.8710 116° Southeast 548 631 38,000  Level FlightAware ADS-B
Fri 07:54:59 AM 37.9280 20.9930 116° Southeast 549 632 38,000  Level FlightAware ADS-B
Fri 07:55:41 AM 37.8810 21.1170 116° Southeast 549 632 38,000  Level FlightAware ADS-B
Fri 07:56:27 AM 37.8290 21.2530 116° Southeast 551 634 38,000  Level FlightAware ADS-B
Fri 07:57:09 AM 37.7830 21.3720 116° Southeast 550 633 38,000  Level FlightAware ADS-B
Fri 07:57:49 AM 37.7380 21.4900 116° Southeast 550 633 38,000  Level FlightAware ADS-B
Fri 07:58:33 AM 37.6900 21.6110 117° Southeast 550 633 38,000  Level FlightAware ADS-B
Fri 07:59:13 AM 37.6440 21.7300 116° Southeast 551 634 38,000  Level FlightAware ADS-B
Fri 07:59:55 AM 37.5960 21.8500 117° Southeast 550 633 38,000  Level FlightAware ADS-B
Fri 08:00:39 AM 37.5470 21.9800 115° Southeast 551 634 38,000  Level FlightAware ADS-B
Fri 08:01:18 AM 37.5030 22.0890 117° Southeast 552 635 38,000  Level FlightAware ADS-B
Fri 08:02:02 AM 37.4530 22.2160 116° Southeast 553 636 38,000  Level FlightAware ADS-B
Fri 08:02:42 AM 37.4090 22.3290 116° Southeast 556 640 38,000  Level FlightAware ADS-B
Fri 08:03:26 AM 37.3660 22.4680 111° Southeast 559 643 38,000 282 Level FlightAware ADS-B
Fri 08:04:07 AM 37.3310 22.5900 110° East 563 648 38,400 732 Climbing FlightAware ADS-B
Fri 08:04:48 AM 37.2940 22.7170 110° East 564 649 39,000 424 Climbing FlightAware ADS-B
Fri 08:05:32 AM 37.2540 22.8510 111° Southeast 562 647 39,000  Level FlightAware ADS-B
Fri 08:06:14 AM 37.2160 22.9830 110° East 561 646 39,000  Level FlightAware ADS-B
Fri 08:06:59 AM 37.1770 23.1140 110° East 562 647 39,000  Level FlightAware ADS-B
Fri 08:07:38 AM 37.1400 23.2390 110° East 561 646 39,000  Level FlightAware ADS-B
Fri 08:08:18 AM 37.1030 23.3610 111° Southeast 562 647 39,000  Level FlightAware ADS-B
Fri 08:09:04 AM 37.0620 23.4970 111° Southeast 562 647 39,000  Level FlightAware ADS-B
Fri 08:09:44 AM 37.0250 23.6190 111° Southeast 562 647 39,000  Level FlightAware ADS-B
Fri 08:10:26 AM 36.9850 23.7490 111° Southeast 561 646 39,000  Level FlightAware ADS-B
Fri 08:11:22 AM 36.9340 23.9190 111° Southeast 561 646 39,000  Level FlightAware ADS-B
Fri 08:11:59 AM 36.9010 24.0240 111° Southeast 561 646 39,000  Level FlightAware ADS-B
Fri 08:12:46 AM 36.8560 24.1690 111° Southeast 560 644 39,000  Level FlightAware ADS-B
Fri 08:13:22 AM 36.8230 24.2780 111° Southeast 559 643 39,000  Level FlightAware ADS-B
Fri 08:14:10 AM 36.7780 24.4220 111° Southeast 558 642 39,000  Level FlightAware ADS-B
Fri 08:14:52 AM 36.7380 24.5510 111° Southeast 558 642 39,000  Level FlightAware ADS-B
Fri 08:15:32 AM 36.6960 24.6650 115° Southeast 556 640 39,000  Level FlightAware ADS-B
Fri 08:16:15 AM 36.6490 24.7900 115° Southeast 556 640 39,000  Level FlightAware ADS-B
Fri 08:16:58 AM 36.6040 24.9120 115° Southeast 556 640 39,000  Level FlightAware ADS-B
Fri 08:17:38 AM 36.5600 25.0310 115° Southeast 556 640 39,000  Level FlightAware ADS-B
Fri 08:18:21 AM 36.5240 25.1300 114° Southeast 557 641 39,000  Level FlightAware ADS-B
Fri 08:19:04 AM 36.4670 25.2850 115° Southeast 558 642 39,000  Level FlightAware ADS-B
Fri 08:19:44 AM 36.4250 25.3980 115° Southeast 558 642 39,000  Level FlightAware ADS-B
Fri 08:20:28 AM 36.3770 25.5290 114° Southeast 558 642 39,000  Level FlightAware ADS-B
Fri 08:21:08 AM 36.3340 25.6450 115° Southeast 559 643 39,000  Level FlightAware ADS-B
Fri 08:21:52 AM 36.2860 25.7700 115° Southeast 561 646 39,000  Level FlightAware ADS-B
Fri 08:22:33 AM 36.2420 25.8870 115° Southeast 561 646 39,000  Level FlightAware ADS-B
Fri 08:23:12 AM 36.1990 26.0040 114° Southeast 563 648 39,000  Level FlightAware ADS-B
Fri 08:23:58 AM 36.1480 26.1380 115° Southeast 563 648 39,000  Level FlightAware ADS-B
Fri 08:24:38 AM 36.1030 26.2550 115° Southeast 563 648 39,000  Level FlightAware ADS-B
Fri 08:25:16 AM 36.0600 26.3680 115° Southeast 564 649 39,000  Level FlightAware ADS-B
Fri 08:26:06 AM 36.0050 26.5100 116° Southeast 563 648 39,000  Level FlightAware ADS-B
Fri 08:26:45 AM 35.9610 26.6230 116° Southeast 563 648 39,000  Level FlightAware ADS-B
Fri 08:27:27 AM 35.9150 26.7450 115° Southeast 563 648 39,000  Level FlightAware ADS-B
Fri 08:28:05 AM 35.8780 26.8380 116° Southeast 562 647 39,000  Level FlightAware ADS-B
Fri 08:28:54 AM 35.8170 26.9960 115° Southeast 562 647 39,000  Level FlightAware ADS-B
Fri 08:29:29 AM 35.7810 27.0880 116° Southeast 562 647 39,000  Level FlightAware ADS-B
Fri 08:30:18 AM 35.7280 27.2210 116° Southeast 561 646 39,000  Level FlightAware ADS-B
Fri 08:31:09 AM 35.6760 27.3560 115° Southeast 562 647 39,000  Level FlightAware ADS-B
Fri 08:31:55 AM 35.6330 27.4700 115° Southeast 562 647 39,000  Level FlightAware ADS-B
Fri 08:32:33 AM 35.5970 27.5630 115° Southeast 562 647 39,000  Level FlightAware ADS-B
Fri 08:33:33 AM 35.5410 27.7110 115° Southeast 562 647 39,000  Level FlightAware ADS-B
Fri 08:34:27 AM 35.4380 27.9480 118° Southeast 567 652 39,000  Level FlightAware ADS-B
Fri 08:35:11 AM 35.3840 28.0840 116° Southeast 567 652 39,000  Level FlightAware ADS-B
Fri 08:35:53 AM 35.3350 28.2050 116° Southeast 567 652 39,000  Level FlightAware ADS-B
Fri 08:36:33 AM 35.2880 28.3170 117° Southeast 568 654 39,000  Level FlightAware ADS-B
Fri 08:37:17 AM 35.2370 28.4460 116° Southeast 567 652 39,000  Level FlightAware ADS-B
Fri 08:37:57 AM 35.1890 28.5610 117° Southeast 568 654 39,000  Level FlightAware ADS-B
Fri 08:38:39 AM 35.1390 28.6810 117° Southeast 569 655 39,000  Level FlightAware ADS-B
Fri 08:39:19 AM 35.0930 28.7930 117° Southeast 571 657 39,000  Level FlightAware ADS-B
Fri 08:40:05 AM 35.0380 28.9260 117° Southeast 572 658 39,000  Level FlightAware ADS-B
Fri 08:40:43 AM 34.9910 29.0380 117° Southeast 573 659 39,000  Level FlightAware ADS-B
Fri 08:41:27 AM 34.9380 29.1650 117° Southeast 574 661 39,000  Level FlightAware ADS-B
Fri 08:42:23 AM 34.8740 29.3170 117° Southeast 574 661 39,000  Level FlightAware ADS-B
Fri 08:43:03 AM 34.8230 29.4380 117° Southeast 574 661 39,000  Level FlightAware ADS-B
Fri 08:43:44 AM 34.7740 29.5530 117° Southeast 573 659 39,000  Level FlightAware ADS-B
Fri 08:44:29 AM 34.7200 29.6780 118° Southeast 571 657 39,000  Level FlightAware ADS-B
Fri 08:45:04 AM 34.6770 29.7810 117° Southeast 570 656 39,000  Level FlightAware ADS-B
Fri 08:45:50 AM 34.6200 29.9140 117° Southeast 568 654 39,000  Level FlightAware ADS-B
Fri 08:46:35 AM 34.5690 30.0320 118° Southeast 563 648 39,000  Level FlightAware ADS-B
Fri 08:47:15 AM 34.5190 30.1370 120° Southeast 561 646 39,000  Level FlightAware ADS-B
Fri 08:47:55 AM 34.4590 30.2600 121° Southeast 561 646 39,000  Level FlightAware ADS-B
Fri 08:48:42 AM 34.3990 30.3860 120° Southeast 561 646 39,000  Level FlightAware ADS-B
Fri 08:49:22 AM 34.3460 30.4950 120° Southeast 561 646 39,000  Level FlightAware ADS-B
Fri 08:50:02 AM 34.2940 30.6040 120° Southeast 562 647 39,000  Level FlightAware ADS-B
Fri 08:50:42 AM 34.2400 30.7160 120° Southeast 564 649 39,000  Level FlightAware ADS-B
Fri 08:51:32 AM 34.1730 30.8530 121° Southeast 570 656 39,000  Level FlightAware ADS-B
Fri 08:52:08 AM 34.1260 30.9490 121° Southeast 570 656 39,000  Level FlightAware ADS-B
Fri 08:52:48 AM 34.0710 31.0620 120° Southeast 571 657 39,000  Level FlightAware ADS-B
Fri 08:53:34 AM 34.0090 31.1870 121° Southeast 570 656 39,000  Level FlightAware ADS-B
Fri 08:54:15 AM 33.9550 31.2990 120° Southeast 568 654 39,000  Level FlightAware ADS-B
Fri 08:54:56 AM 33.9030 31.4050 121° Southeast 567 652 39,000  Level FlightAware ADS-B
Fri 08:55:40 AM 33.8410 31.5300 121° Southeast 565 650 39,000  Level FlightAware ADS-B
Fri 08:56:26 AM 33.7790 31.6540 121° Southeast 565 650 39,000  Level FlightAware ADS-B
Fri 08:57:05 AM 33.7260 31.7590 121° Southeast 564 649 39,000  Level FlightAware ADS-B
Fri 08:57:45 AM 33.6720 31.8660 121° Southeast 563 648 39,000  Level FlightAware ADS-B
Fri 08:58:25 AM 33.6180 31.9730 121° Southeast 563 648 39,000  Level FlightAware ADS-B
Fri 08:59:11 AM 33.5560 32.0960 121° Southeast 563 648 39,000  Level FlightAware ADS-B
Fri 08:59:51 AM 33.5020 32.2030 121° Southeast 563 648 39,000  Level FlightAware ADS-B
Fri 09:00:36 AM 33.4430 32.3200 121° Southeast 563 648 39,000 -70 Level FlightAware ADS-B
Fri 09:01:17 AM 33.3880 32.4290 121° Southeast 559 643 38,900 -1,630 Descending FlightAware ADS-B
Fri 09:01:57 AM 33.3320 32.5380 122° Southeast 564 649 36,800 -2,894 Descending FlightAware ADS-B
Fri 09:02:42 AM 33.2730 32.6550 121° Southeast 559 643 34,800 -2,329 Descending FlightAware ADS-B
Fri 09:03:22 AM 33.2210 32.7560 122° Southeast 542 624 33,500 -2,182 Descending FlightAware ADS-B
Fri 09:03:59 AM 33.1680 32.8580 122° Southeast 534 615 32,000 -2,126 Descending FlightAware ADS-B
Fri 09:05:29 AM 33.0560 33.0750 122° Southeast 498 573 29,000 -1,895 Descending FlightAware ADS-B
Fri 09:06:12 AM 33.0070 33.1680 122° Southeast 478 550 27,800 -1,952 Descending FlightAware ADS-B
Fri 09:06:52 AM 32.9620 33.2620 120° Southeast 469 540 26,300 -2,118 Descending FlightAware ADS-B
Fri 09:07:37 AM 32.9450 33.3720 100° East 457 526 24,800 -1,551 Descending FlightAware ADS-B
Fri 09:08:21 AM 32.9390 33.4850 94° East 429 494 24,000 -565 Descending FlightAware ADS-B
Fri 09:09:02 AM 32.9330 33.5780 94° East 421 484 24,000  Level FlightAware ADS-B
Fri 09:09:41 AM 32.9280 33.6720 94° East 432 497 24,000  Level FlightAware ADS-B
Fri 09:10:12 AM 32.9230 33.7420 95° East 426 490 24,000 -164 Level FlightAware ADS-B
Fri 09:10:54 AM 32.9180 33.8400 93° East 419 482 23,800 -940 Descending FlightAware ADS-B
Fri 09:11:35 AM 32.9130 33.9310 94° East 404 465 22,700 -1,575 Descending FlightAware ADS-B
Fri 09:12:14 AM 32.9090 33.9970 94° East 397 457 21,700 -2,160 Descending FlightAware ADS-B
Fri 09:12:25 AM 32.9000 34.0430 103° East 391 450 20,900 -3,484 Descending FlightAware ADS-B
Fri 09:12:45 AM 32.8810 34.0790 122° Southeast 384 442 19,900 -2,553 Descending FlightAware ADS-B
Fri 09:13:12 AM 32.8450 34.1120 142° Southeast 365 420 18,900 -1,971 Descending FlightAware ADS-B
Fri 09:13:55 AM 32.7760 34.1290 168° South 345 397 17,600 -1,605 Descending FlightAware ADS-B
Fri 09:14:38 AM 32.7100 34.1360 175° South 339 390 16,600 -1,446 Descending FlightAware ADS-B
Fri 09:15:18 AM 32.6470 34.1430 175° South 331 381 15,600 -1,575 Descending FlightAware ADS-B
Fri 09:15:58 AM 32.5850 34.1500 175° South 328 377 14,500 -1,929 Descending FlightAware ADS-B
Fri 09:16:42 AM 32.5200 34.1570 175° South 322 371 12,900 -2,167 Descending FlightAware ADS-B
Fri 09:17:10 AM 32.4810 34.1700 164° South 332 382 11,900 -1,857 Descending FlightAware ADS-B
Fri 09:17:24 AM 32.4630 34.1850 145° Southeast 335 386 11,600 -800 Descending FlightAware ADS-B
Fri 09:18:10 AM 32.4170 34.2390 135° Southeast 334 384 11,100 -366 Descending FlightAware ADS-B
Fri 09:18:46 AM 32.3840 34.2790 134° Southeast 334 384 11,100  Level FlightAware ADS-B
Fri 09:19:34 AM 32.3390 34.3310 136° Southeast 334 384 11,100 -2,522 Level FlightAware ADS-B
Fri 09:19:55 AM 32.3060 34.3710 134° Southeast 305 351 8,200 -1,812 Descending FlightAware ADS-B
Fri 09:22:00 AM 32.1189 34.6407 125° Southeast  Level FlightAware Approximate
Fri 09:22:03 AM 32.2300 34.4700 125° Southeast 290 334 6,600  Level FlightAware ADS-B
Fri 09:24:00 AM 32.0713 34.7301 115° Southeast  Level FlightAware Approximate
Fri 09:24:52 AM 32.0840 34.7330 125° Southeast 252 290 5,000  Level FlightAware ADS-B
Fri 09:25:00 AM 32.0000 34.8667 125° Southeast  Level FlightAware Approximate
Fri 09:25:04 AM 32.0770 34.7470 121° Southeast 252 290 5,000  Level FlightAware ADS-B
Fri 09:25:28 AM 32.0620 34.7720 125° Southeast 252 290 5,000 -333 Level FlightAware ADS-B
Fri 09:25:58 AM 32.0360 34.8030 135° Southeast 245 282 4,700 -545 Descending FlightAware ADS-B
Fri 09:26:45 AM 32.0010 34.8430 136° Southeast 219 252 4,300 -845 Descending FlightAware ADS-B
Fri 09:27:09 AM 31.9830 34.8630 137° Southeast 221 254 3,700 -1,333 Descending FlightAware ADS-B
Fri 09:27:21 AM 31.9770 34.8710 131° Southeast 221 254 3,500 -1,333 Descending FlightAware ADS-B
Fri 09:27:36 AM 31.9730 34.8880 105° East 215 247 3,100 -1,250 Descending FlightAware ADS-B
Fri 09:28:09 AM 31.9800 34.9260 78° East 196 226 2,500 -621 Descending FlightAware ADS-B
Fri 09:28:34 AM 31.9850 34.9480 75° East 196 226 2,500 -414 Level FlightAware ADS-B
Fri 09:29:07 AM 31.9920 34.9740 72° East 180 207 2,100 -727 Descending FlightAware ADS-B
Fri 09:31:00 AM 32.0095 34.8769 282° West  Level Estimated

Login

Don't have an account? Register now (free) for customized features, flight alerts, and more!